Time;durP1;ratioP1;P1;durP2;ratioP2;P2;SDS_P1;SDS_P2;PMS_P1;PMS_P2;Temp;Humidity;BMP_temperature;BMP_pressure;BME280_temperature;BME280_humidity;BME280_pressure;Samples;Min_cycle;Max_cycle;Signal;HPM_P1;HPM_P2
2022/06/06 00:00:45;;;;;;;0.30;0.30;;;;;;;10.11;100.00;100990.75;5006963;28;20041;-76
2022/06/06 00:03:11;;;;;;;0.30;0.30;;;;;;;10.11;100.00;100992.63;5024807;28;20070;-76
2022/06/06 00:05:41;;;;;;;3.35;1.27;;;;;;;10.11;100.00;100993.44;5024855;28;20053;-76
2022/06/06 00:08:07;;;;;;;0.73;0.73;;;;;;;10.11;100.00;100988.09;5026466;28;20525;-76
2022/06/06 00:10:32;;;;;;;0.30;0.30;;;;;;;10.10;100.00;100980.16;4991574;28;20037;-77
2022/06/06 00:12:58;;;;;;;1.30;1.20;;;;;;;10.09;100.00;100994.63;5023058;28;20033;-76
2022/06/06 00:15:24;;;;;;;0.30;0.30;;;;;;;10.07;100.00;100992.09;4993642;28;20033;-76
2022/06/06 00:17:49;;;;;;;0.30;0.30;;;;;;;10.08;100.00;100996.47;5011380;28;20033;-76
2022/06/06 00:20:16;;;;;;;0.40;0.40;;;;;;;10.11;100.00;100992.63;5008646;28;20064;-76
2022/06/06 00:22:42;;;;;;;1.08;0.80;;;;;;;10.11;100.00;100992.63;5005811;28;20483;-76
2022/06/06 00:25:08;;;;;;;0.40;0.40;;;;;;;10.02;100.00;100977.47;5025446;28;20413;-76
2022/06/06 00:27:34;;;;;;;0.30;0.30;;;;;;;10.11;100.00;100990.75;5020469;28;20111;-76
2022/06/06 00:29:59;;;;;;;0.30;0.30;;;;;;;10.02;100.00;100977.47;5007704;28;20029;-76
2022/06/06 00:35:09;;;;;;;0.40;0.40;;;;;;;10.07;100.00;100983.19;5019807;28;20116;-77
2022/06/06 00:37:37;;;;;;;0.30;0.30;;;;;;;10.09;100.00;100975.81;5018125;28;20125;-77
2022/06/06 00:40:04;;;;;;;2.38;1.65;;;;;;;10.07;100.00;100967.91;5027659;28;20107;-77
2022/06/06 00:42:30;;;;;;;0.43;0.43;;;;;;;10.07;100.00;100978.66;4985640;28;20561;-76
2022/06/06 00:45:14;;;;;;;0.90;0.57;;;;;;;10.00;100.00;100964.25;5022194;28;20033;-76
2022/06/06 00:47:41;;;;;;;0.40;0.40;;;;;;;10.05;100.00;100969.09;5025327;28;20029;-77
2022/06/06 00:50:16;;;;;;;0.40;0.40;;;;;;;10.03;100.00;100977.31;5010139;28;20037;-76
2022/06/06 00:52:43;;;;;;;0.30;0.30;;;;;;;10.04;100.00;100979.00;5008305;28;20072;-78
2022/06/06 00:55:18;;;;;;;0.30;0.30;;;;;;;10.04;100.00;100972.78;5026743;28;20042;-77
2022/06/06 00:57:52;;;;;;;1.25;1.15;;;;;;;10.01;100.00;100973.97;5016251;28;20050;-76
2022/06/06 01:00:19;;;;;;;0.40;0.40;;;;;;;10.00;100.00;100971.44;5012545;28;20120;-77
2022/06/06 01:02:49;;;;;;;2.50;1.23;;;;;;;10.02;100.00;100961.38;5017065;28;20034;-79
2022/06/06 01:05:18;;;;;;;1.10;1.10;;;;;;;10.00;100.00;100956.19;5021956;28;20037;-78
2022/06/06 01:07:44;;;;;;;0.30;0.30;;;;;;;10.01;100.00;100971.28;5021095;28;20029;-78
2022/06/06 01:10:10;;;;;;;0.40;0.40;;;;;;;10.04;100.00;100962.03;5007299;28;20081;-77
2022/06/06 01:12:37;;;;;;;0.50;0.50;;;;;;;10.04;100.00;100962.03;5008782;28;20032;-77
2022/06/06 01:15:07;;;;;;;0.50;0.50;;;;;;;10.00;100.00;100958.88;5009254;28;20152;-77
2022/06/06 01:17:41;;;;;;;2.30;1.05;;;;;;;9.93;100.00;100943.59;4998109;28;20033;-78
2022/06/06 01:20:37;;;;;;;0.40;0.40;;;;;;;10.00;100.00;100960.69;4994640;28;20506;-78
2022/06/06 01:23:36;;;;;;;0.30;0.30;;;;;;;10.00;100.00;100958.00;5026817;28;20045;-76
2022/06/06 01:26:30;;;;;;;0.35;0.35;;;;;;;9.99;100.00;100951.78;5011868;28;20056;-77
2022/06/06 01:28:56;;;;;;;0.30;0.30;;;;;;;9.99;100.00;100959.03;5026681;28;20171;-78
2022/06/06 01:31:39;;;;;;;8.98;2.30;;;;;;;9.98;100.00;100941.22;5014687;28;20550;-77
2022/06/06 01:34:05;;;;;;;;;;;;;;;9.97;100.00;100951.13;5007612;28;20034;-77
2022/06/06 01:36:32;;;;;;;0.30;0.30;;;;;;;9.91;100.00;100935.69;5044218;28;19925;-76
2022/06/06 01:39:00;;;;;;;0.30;0.30;;;;;;;9.77;100.00;100906.81;5011909;28;20041;-77
2022/06/06 01:41:37;;;;;;;0.32;0.32;;;;;;;9.93;100.00;100933.66;5017557;28;20030;-77
2022/06/06 01:44:08;;;;;;;0.30;0.30;;;;;;;9.94;100.00;100929.97;5027913;28;20511;-76
2022/06/06 01:46:36;;;;;;;0.30;0.30;;;;;;;9.93;100.00;100930.16;5026319;28;20601;-76
2022/06/06 01:49:03;;;;;;;0.30;0.30;;;;;;;9.93;100.00;100930.97;5005052;28;20866;-77
2022/06/06 01:51:30;;;;;;;0.30;0.30;;;;;;;9.94;100.00;100927.28;5023688;28;20036;-77
2022/06/06 01:53:56;;;;;;;0.40;0.40;;;;;;;9.88;100.00;100922.59;5010222;28;20120;-77
2022/06/06 01:56:35;;;;;;;0.30;0.30;;;;;;;9.94;100.00;100924.59;5024229;28;20113;-77
2022/06/06 01:59:01;;;;;;;0.30;0.30;;;;;;;9.94;100.00;100919.22;5017424;28;20055;-77
2022/06/06 02:01:26;;;;;;;0.30;0.30;;;;;;;9.92;100.00;100926.59;5024930;28;20090;-77
2022/06/06 02:03:52;;;;;;;0.30;0.30;;;;;;;9.93;100.00;100917.56;5009341;28;20041;-77
2022/06/06 02:06:18;;;;;;;0.30;0.30;;;;;;;9.93;100.00;100920.25;5007382;28;20021;-77
2022/06/06 02:08:44;;;;;;;0.30;0.30;;;;;;;9.94;100.00;100913.00;5017968;28;20125;-77
2022/06/06 02:11:11;;;;;;;0.30;0.30;;;;;;;9.93;100.00;100906.81;5023585;28;20115;-78
2022/06/06 02:13:37;;;;;;;0.35;0.35;;;;;;;9.89;100.00;100910.81;5025963;28;20037;-78
2022/06/06 02:16:03;;;;;;;0.30;0.30;;;;;;;9.85;100.00;100909.50;5022550;28;20090;-77
2022/06/06 02:18:28;;;;;;;0.30;0.30;;;;;;;9.84;100.00;100908.66;5008874;28;20483;-77
2022/06/06 02:20:54;;;;;;;0.30;0.30;;;;;;;9.84;100.00;100910.47;4994140;28;20041;-77
2022/06/06 02:23:20;;;;;;;0.40;0.40;;;;;;;9.78;100.00;100903.94;5028208;28;20514;-77
2022/06/06 02:25:46;;;;;;;0.30;0.30;;;;;;;9.86;100.00;100919.22;5004805;28;20510;-77
2022/06/06 02:28:12;;;;;;;0.30;0.30;;;;;;;9.87;100.00;100900.25;5005452;28;20068;-79
2022/06/06 02:30:38;;;;;;;1.02;0.95;;;;;;;9.86;100.00;100909.31;5010183;28;20026;-77
2022/06/06 02:33:04;;;;;;;0.77;0.77;;;;;;;9.82;100.00;100904.47;5027698;28;20056;-77
2022/06/06 02:35:38;;;;;;;0.70;0.57;;;;;;;9.84;100.00;100908.66;5009077;28;20368;-78
2022/06/06 02:38:04;;;;;;;0.50;0.50;;;;;;;9.82;100.00;100902.63;5026435;28;20047;-78
2022/06/06 02:40:31;;;;;;;0.40;0.40;;;;;;;9.86;100.00;100913.84;5007754;28;20065;-78
2022/06/06 02:42:57;;;;;;;0.40;0.40;;;;;;;9.86;100.00;100900.41;5023162;28;20128;-78
2022/06/06 02:45:22;;;;;;;0.40;0.40;;;;;;;9.86;100.00;100906.63;5020052;28;20065;-78
2022/06/06 02:47:54;;;;;;;0.32;0.32;;;;;;;9.85;100.00;100906.81;4996673;28;20530;-78
2022/06/06 02:50:23;;;;;;;0.65;0.65;;;;;;;9.83;100.00;100901.59;5025880;28;20383;-76
2022/06/06 02:52:48;;;;;;;0.40;0.40;;;;;;;9.88;100.00;100915.34;5028333;28;20467;-77
2022/06/06 02:55:15;;;;;;;1.60;1.50;;;;;;;9.89;100.00;100914.34;5025480;28;20125;-76
2022/06/06 02:57:43;;;;;;;0.40;0.40;;;;;;;9.88;100.00;100912.69;4993484;28;20121;-76
2022/06/06 03:00:12;;;;;;;0.30;0.30;;;;;;;9.91;100.00;100915.03;5005898;28;20391;-77
2022/06/06 03:02:39;;;;;;;0.30;0.30;;;;;;;9.90;100.00;100912.53;4991114;28;20113;-77
2022/06/06 03:05:06;;;;;;;0.30;0.30;;;;;;;9.91;100.00;100915.03;5008819;28;20037;-77
2022/06/06 03:07:44;;;;;;;0.73;0.73;;;;;;;9.89;100.00;100908.13;5009735;28;20034;-77
2022/06/06 03:10:29;;;;;;;0.65;0.65;;;;;;;9.91;100.00;100915.03;5021108;28;20041;-77
2022/06/06 03:13:10;;;;;;;0.50;0.50;;;;;;;9.85;100.00;100907.66;4995389;28;20486;-76
2022/06/06 03:15:41;;;;;;;0.30;0.30;;;;;;;9.91;100.00;100914.19;5024984;28;20033;-77
2022/06/06 03:21:48;;;;;;;0.47;0.47;;;;;;;9.86;100.00;100903.94;5035725;28;20476;-76
2022/06/06 03:24:36;;;;;;;0.30;0.30;;;;;;;9.88;100.00;100906.47;5010429;28;20033;-77
2022/06/06 03:27:07;;;;;;;3.92;1.35;;;;;;;9.91;100.00;100916.88;5028249;28;20073;-77
2022/06/06 03:29:33;;;;;;;1.67;1.15;;;;;;;9.77;100.00;100904.13;5023794;28;20029;-76
2022/06/06 03:32:25;;;;;;;1.70;0.95;;;;;;;9.90;100.00;100912.53;5010578;28;20394;-76
2022/06/06 03:35:08;;;;;;;1.50;1.50;;;;;;;9.91;100.00;100922.25;5003350;28;20041;-77
2022/06/06 03:37:52;;;;;;;0.57;0.57;;;;;;;9.90;100.00;100916.03;5026253;28;20037;-77
2022/06/06 03:40:21;;;;;;;0.45;0.45;;;;;;;9.92;100.00;100915.84;5010974;28;20065;-77
2022/06/06 03:43:07;;;;;;;1.58;1.50;;;;;;;9.90;100.00;100915.22;5028215;28;20036;-77
2022/06/06 03:45:43;;;;;;;1.02;1.00;;;;;;;9.92;100.00;100915.84;4995499;28;20037;-76
2022/06/06 03:48:17;;;;;;;1.40;1.30;;;;;;;9.93;100.00;100914.03;4992883;28;20041;-77
2022/06/06 03:51:01;;;;;;;1.10;1.10;;;;;;;9.90;100.00;100907.97;4994351;28;20037;-76
2022/06/06 03:54:02;;;;;;;2.33;2.10;;;;;;;9.80;100.00;100890.34;5007579;28;20072;-76
2022/06/06 03:56:46;;;;;;;1.58;1.50;;;;;;;9.91;100.00;100904.28;5009570;28;20172;-78
2022/06/06 03:59:14;;;;;;;1.02;1.02;;;;;;;9.93;100.00;100911.34;5008030;28;20037;-77
2022/06/06 04:01:40;;;;;;;0.85;0.75;;;;;;;9.94;100.00;100913.00;4986029;28;20113;-76
2022/06/06 04:04:07;;;;;;;1.63;1.58;;;;;;;9.94;100.00;100908.47;5025877;28;20091;-78
2022/06/06 04:06:34;;;;;;;2.58;1.67;;;;;;;9.95;100.00;100910.16;5019757;28;20045;-77
2022/06/06 04:09:00;;;;;;;6.20;3.60;;;;;;;9.93;100.00;100917.56;5025440;28;20037;-77
2022/06/06 04:11:28;;;;;;;0.40;0.40;;;;;;;9.94;100.00;100913.84;5055552;28;20025;-76
2022/06/06 04:14:25;;;;;;;0.50;0.50;;;;;;;9.93;100.00;100917.56;5024897;28;20057;-77
2022/06/06 04:17:00;;;;;;;1.10;1.10;;;;;;;9.86;100.00;100903.09;5002809;28;20033;-78
2022/06/06 04:19:34;;;;;;;2.13;1.92;;;;;;;9.91;100.00;100920.38;5010141;28;20033;-77
2022/06/06 04:22:12;;;;;;;0.70;0.70;;;;;;;9.92;100.00;100926.59;5006729;28;20033;-77
2022/06/06 04:24:37;;;;;;;1.85;1.15;;;;;;;9.91;100.00;100928.44;5025927;28;20025;-77
2022/06/06 04:27:17;;;;;;;1.25;1.20;;;;;;;9.90;100.00;100918.72;5017802;28;20032;-76
2022/06/06 04:29:55;;;;;;;1.35;1.30;;;;;;;9.83;100.00;100904.28;5050850;28;20034;-76
2022/06/06 04:32:21;;;;;;;0.60;0.60;;;;;;;9.86;100.00;100913.84;5020140;28;20033;-77
2022/06/06 04:34:50;;;;;;;1.75;1.02;;;;;;;9.89;100.00;100913.50;5009279;28;20096;-77
2022/06/06 04:37:47;;;;;;;5.75;1.73;;;;;;;9.89;100.00;100914.34;4991897;28;20088;-76
2022/06/06 04:40:37;;;;;;;1.17;1.17;;;;;;;9.87;100.00;100908.31;5022116;28;20073;-77
2022/06/06 04:43:13;;;;;;;1.02;1.02;;;;;;;9.90;100.00;100913.34;5019848;28;20049;-77
2022/06/06 04:45:51;;;;;;;12.23;2.08;;;;;;;9.80;100.00;100893.03;5020259;28;20363;-77
2022/06/06 04:48:18;;;;;;;7.30;4.53;;;;;;;9.91;100.00;100904.28;5010129;28;20120;-76
2022/06/06 04:50:45;;;;;;;5.53;4.25;;;;;;;9.97;100.00;100916.19;5007359;28;20026;-76
2022/06/06 04:53:14;;;;;;;1.40;1.30;;;;;;;9.91;100.00;100903.44;5010809;28;20033;-76
2022/06/06 04:55:41;;;;;;;4.50;2.83;;;;;;;10.01;100.00;100914.88;5010621;28;21853;-76
2022/06/06 04:58:08;;;;;;;3.60;2.97;;;;;;;10.08;100.00;100915.00;5019851;28;20052;-76
2022/06/06 05:00:38;;;;;;;3.17;2.90;;;;;;;10.09;100.00;100917.53;5024981;28;20106;-77
2022/06/06 05:03:04;;;;;;;5.20;3.13;;;;;;;10.14;100.00;100914.34;5009137;28;20045;-77
2022/06/06 05:06:08;;;;;;;1.35;1.25;;;;;;;10.18;100.00;100920.22;5028591;28;20035;-77
2022/06/06 05:09:09;;;;;;;3.60;2.95;;;;;;;10.20;100.00;100918.22;5006236;28;20037;-77
2022/06/06 05:11:49;;;;;;;8.27;6.47;;;;;;;10.20;100.00;100916.34;5010375;28;20383;-76
2022/06/06 05:14:24;;;;;;;2.90;2.67;;;;;;;10.24;100.00;100916.84;4989440;28;20034;-78
2022/06/06 05:17:31;;;;;;;8.88;3.63;;;;;;;10.28;100.00;100915.53;5012360;28;20037;-77
2022/06/06 05:20:35;;;;;;;6.90;4.03;;;;;;;10.31;100.00;100923.25;5030214;28;20033;-78
2022/06/06 05:23:06;;;;;;;2.40;2.20;;;;;;;10.32;100.00;100916.91;5023868;28;20542;-78
2022/06/06 05:25:53;;;;;;;5.78;3.72;;;;;;;10.34;100.00;100913.00;5032128;28;20120;-77
2022/06/06 05:28:25;;;;;;;7.72;4.45;;;;;;;10.37;100.00;100921.75;5021184;28;20395;-77
2022/06/06 05:31:22;;;;;;;4.38;3.70;;;;;;;10.39;100.00;100922.41;5005378;28;20600;-78
2022/06/06 05:33:58;;;;;;;8.50;5.35;;;;;;;10.46;100.00;100926.09;5027145;28;20033;-77
2022/06/06 05:36:32;;;;;;;16.75;6.75;;;;;;;10.49;100.00;100933.81;5027013;28;20048;-76
2022/06/06 05:39:01;;;;;;;10.27;4.53;;;;;;;10.50;100.00;100917.50;5027011;28;20203;-76
2022/06/06 05:41:33;;;;;;;11.77;5.70;;;;;;;10.62;100.00;100923.38;5026103;28;20398;-76
2022/06/06 05:44:29;;;;;;;10.52;5.95;;;;;;;10.65;100.00;100927.56;5024167;28;20041;-77
2022/06/06 05:47:21;;;;;;;7.90;4.80;;;;;;;10.62;100.00;100914.47;5044011;28;20041;-77
2022/06/06 05:50:05;;;;;;;0.95;0.95;;;;;;;10.66;100.00;100924.69;5013403;28;20033;-77
2022/06/06 05:53:12;;;;;;;10.85;5.80;;;;;;;10.70;100.00;100927.91;5020925;28;20036;-77
2022/06/06 05:56:07;;;;;;;12.18;5.60;;;;;;;10.74;100.00;100926.53;5022111;28;20168;-77
2022/06/06 05:58:51;;;;;;;17.05;5.78;;;;;;;10.78;100.00;100914.41;5028071;28;20037;-78
2022/06/06 06:01:26;;;;;;;18.80;8.13;;;;;;;10.81;100.00;100930.22;5008031;28;20037;-76
2022/06/06 06:04:08;;;;;;;2.13;1.50;;;;;;;10.81;100.00;100919.44;5051515;28;20067;-77
2022/06/06 06:06:56;;;;;;;1.10;1.00;;;;;;;10.69;100.00;100907.38;5019215;28;20061;-76
2022/06/06 06:09:52;;;;;;;13.20;4.47;;;;;;;10.70;100.00;100919.81;5009690;28;20050;-77
2022/06/06 06:12:54;;;;;;;2.80;2.35;;;;;;;10.70;100.00;100919.81;5014380;28;20391;-76
2022/06/06 06:15:26;;;;;;;10.32;6.50;;;;;;;10.67;100.00;100912.09;5023709;28;20116;-77
2022/06/06 06:17:53;;;;;;;9.43;3.73;;;;;;;10.68;100.00;100911.91;5017565;28;20130;-77
2022/06/06 06:20:25;;;;;;;12.68;3.85;;;;;;;10.72;100.00;100912.44;5019191;28;20037;-77
2022/06/06 06:22:55;;;;;;;20.10;4.90;;;;;;;10.76;100.00;100913.75;5019327;28;20127;-77
2022/06/06 06:25:24;;;;;;;4.25;1.98;;;;;;;10.77;100.00;100910.06;5031893;28;20036;-77
2022/06/06 06:27:53;;;;;;;7.13;3.97;;;;;;;10.87;100.00;100913.38;5003645;28;20039;-77
2022/06/06 06:30:19;;;;;;;19.25;6.32;;;;;;;10.94;100.00;100918.91;5005132;28;20037;-77
2022/06/06 06:32:53;;;;;;;17.60;7.25;;;;;;;11.08;100.00;100917.31;4997776;28;20510;-77
2022/06/06 06:35:38;;;;;;;19.70;4.18;;;;;;;11.16;100.00;100914.59;5021780;28;20040;-76
2022/06/06 06:38:10;;;;;;;5.72;2.60;;;;;;;11.25;100.00;100913.56;4992617;28;20025;-77
2022/06/06 06:41:03;;;;;;;12.95;5.90;;;;;;;11.30;100.00;100908.47;5025151;28;20040;-77
2022/06/06 06:43:50;;;;;;;9.75;5.00;;;;;;;11.10;100.00;100880.31;4996299;28;20107;-77
2022/06/06 06:47:09;;;;;;;23.17;6.97;;;;;;;11.32;100.00;100917.19;5011456;28;20064;-76
2022/06/06 06:49:38;;;;;;;16.77;5.63;;;;;;;11.41;100.00;100916.16;5044826;28;20097;-76
2022/06/06 06:52:44;;;;;;;;;;;;;;;;;;;;;
2022/06/06 06:55:32;;;;;;;15.65;6.47;;;;;;;11.60;100.00;100922.09;5027280;28;20038;-77
2022/06/06 06:58:41;;;;;;;14.32;5.72;;;;;;;11.71;100.00;100916.28;5026650;28;20039;-76
2022/06/06 07:01:27;;;;;;;21.60;6.63;;;;;;;11.83;100.00;100922.09;5011244;28;20069;-77
2022/06/06 07:09:56;;;;;;;22.13;8.60;;;;;;;12.06;100.00;100904.06;5023632;28;20029;-76
2022/06/06 07:12:31;;;;;;;23.23;7.72;;;;;;;12.20;100.00;100915.94;5031460;28;20103;-76
2022/06/06 07:15:48;;;;;;;13.43;4.70;;;;;;;12.41;100.00;100915.22;5026122;28;20042;-77
2022/06/06 07:18:20;;;;;;;22.42;6.82;;;;;;;12.67;100.00;100912.06;4979745;28;20037;-76
2022/06/06 07:20:49;;;;;;;22.17;8.50;;;;;;;12.80;100.00;100905.19;5003377;28;20037;-77
2022/06/06 07:23:21;;;;;;;29.02;8.20;;;;;;;13.02;100.00;100914.19;4994309;28;20046;-76
2022/06/06 07:25:51;;;;;;;21.88;6.80;;;;;;;13.05;100.00;100911.13;5023211;28;20105;-76
2022/06/06 07:28:22;;;;;;;26.48;9.32;;;;;;;13.23;100.00;100924.19;5002542;28;20083;-76
2022/06/06 07:31:07;;;;;;;22.20;8.15;;;;;;;13.29;100.00;100924.31;5021573;28;20040;-77
2022/06/06 07:33:39;;;;;;;24.88;8.15;;;;;;;13.37;100.00;100921.50;4985445;28;20345;-77
2022/06/06 07:36:11;;;;;;;23.02;8.35;;;;;;;13.46;100.00;100911.41;5018763;28;20049;-76
2022/06/06 07:39:10;;;;;;;21.80;7.22;;;;;;;13.50;100.00;100898.38;5007280;28;20037;-77
2022/06/06 07:41:56;;;;;;;26.05;9.07;;;;;;;13.70;100.00;100925.59;5019054;28;20108;-76
2022/06/06 07:44:41;;;;;;;19.13;7.68;;;;;;;13.74;100.00;100921.50;5004402;28;20268;-76
2022/06/06 07:47:42;;;;;;;24.13;8.20;;;;;;;13.80;100.00;100918.84;5022487;28;20041;-76
2022/06/06 07:50:14;;;;;;;23.13;8.02;;;;;;;13.80;100.00;100913.44;4998526;28;20484;-76
2022/06/06 07:52:47;;;;;;;17.42;6.57;;;;;;;13.83;100.00;100910.34;5007454;28;20030;-76
2022/06/06 07:55:35;;;;;;;23.98;8.40;;;;;;;13.77;100.00;100910.28;5008036;28;20033;-76
2022/06/06 07:58:20;;;;;;;24.15;8.50;;;;;;;13.66;100.00;100908.94;5000673;28;20087;-76
2022/06/06 08:01:21;;;;;;;20.80;7.70;;;;;;;13.60;100.00;100917.78;5015974;28;20044;-77
2022/06/06 08:03:52;;;;;;;20.55;8.02;;;;;;;13.53;100.00;100906.09;5007247;28;20075;-76
2022/06/06 08:06:24;;;;;;;16.90;8.07;;;;;;;13.52;100.00;100909.81;5002298;28;20048;-77
2022/06/06 08:09:04;;;;;;;13.25;6.20;;;;;;;13.48;100.00;100906.66;5007279;28;20045;-77
2022/06/06 08:11:47;;;;;;;21.88;8.80;;;;;;;13.62;100.00;100904.94;5002612;28;20517;-76
2022/06/06 08:14:43;;;;;;;16.75;6.82;;;;;;;13.72;100.00;100885.72;5022805;28;20037;-76
2022/06/06 08:17:26;;;;;;;6.00;3.08;;;;;;;13.90;100.00;100905.00;5006929;28;20476;-77
2022/06/06 08:20:13;;;;;;;17.23;6.28;;;;;;;13.78;100.00;100896.56;5010143;28;20037;-76
2022/06/06 08:22:42;;;;;;;13.05;5.80;;;;;;;13.72;100.00;100908.16;5024402;28;20056;-76
2022/06/06 08:25:11;;;;;;;10.40;4.63;;;;;;;13.70;100.00;100896.69;5021354;28;20029;-76
2022/06/06 08:27:38;;;;;;;15.95;6.15;;;;;;;13.70;100.00;100895.88;5022801;28;20061;-76
2022/06/06 08:30:07;;;;;;;17.85;7.88;;;;;;;13.70;100.00;100902.09;4988078;28;20131;-76
2022/06/06 08:32:33;;;;;;;17.77;7.82;;;;;;;13.74;100.00;100903.41;5011541;28;20041;-77
2022/06/06 08:35:02;;;;;;;13.23;5.50;;;;;;;13.92;100.00;100910.22;5004266;28;20313;-76
2022/06/06 08:38:05;;;;;;;10.70;4.15;;;;;;;14.13;100.00;100903.94;5041122;28;20048;-76
2022/06/06 08:40:50;;;;;;;18.40;6.78;;;;;;;14.13;100.00;100909.34;5008587;28;20072;-77
2022/06/06 08:43:37;;;;;;;17.30;7.05;;;;;;;14.31;100.00;100907.00;4989264;28;20128;-77
2022/06/06 08:46:21;;;;;;;16.48;6.28;;;;;;;14.51;100.00;100912.56;5006044;28;20038;-76
2022/06/06 08:49:10;;;;;;;11.80;5.60;;;;;;;14.50;100.00;100900.91;5006855;28;20398;-77
2022/06/06 08:51:50;;;;;;;18.65;6.55;;;;;;;14.51;100.00;100896.34;5022655;28;20033;-76
2022/06/06 08:54:51;;;;;;;10.95;5.35;;;;;;;14.58;100.00;100908.06;5002197;28;20037;-80
2022/06/06 08:57:36;;;;;;;13.90;5.97;;;;;;;14.62;100.00;100900.38;4991070;28;20128;-78
2022/06/06 09:00:26;;;;;;;10.80;4.82;;;;;;;14.79;100.00;100888.22;4995580;28;20041;-77
2022/06/06 09:03:11;;;;;;;13.75;5.75;;;;;;;15.05;100.00;100890.19;5011001;28;20067;-77
2022/06/06 09:05:58;;;;;;;14.38;6.07;;;;;;;15.40;100.00;100890.13;5025482;28;21143;-78
2022/06/06 09:08:38;;;;;;;12.82;6.13;;;;;;;15.75;100.00;100888.13;5027812;28;20038;-77
2022/06/06 09:11:10;;;;;;;12.32;5.20;;;;;;;15.72;100.00;100893.13;5028637;28;20094;-77
2022/06/06 09:14:15;;;;;;;12.60;5.80;;;;;;;15.45;100.00;100890.31;5011215;28;20075;-77
2022/06/06 09:17:23;;;;;;;11.07;5.00;;;;;;;15.32;100.00;100887.56;5012003;28;20029;-78
2022/06/06 09:20:07;;;;;;;7.45;3.58;;;;;;;15.48;100.00;100889.94;5012281;28;20041;-77
2022/06/06 09:22:52;;;;;;;13.02;5.35;;;;;;;15.81;100.00;100891.88;5028159;28;20025;-77
2022/06/06 09:25:23;;;;;;;8.63;5.13;;;;;;;16.12;100.00;100887.72;5027659;28;20526;-78
2022/06/06 09:27:58;;;;;;;12.45;5.40;;;;;;;16.11;100.00;100892.28;5027560;28;20026;-78
2022/06/06 09:30:36;;;;;;;10.43;5.32;;;;;;;16.10;100.00;100889.81;5027618;28;20069;-78
2022/06/06 09:33:27;;;;;;;9.52;4.90;;;;;;;16.37;100.00;100893.31;5030094;28;20099;-77
2022/06/06 09:36:30;;;;;;;9.80;4.70;;;;;;;16.80;100.00;100888.25;5007681;28;20040;-77
2022/06/06 09:39:13;;;;;;;7.53;4.22;;;;;;;16.89;100.00;100876.09;5030342;28;20438;-78
2022/06/06 09:41:39;;;;;;;9.27;4.88;;;;;;;16.83;99.03;100890.56;5012803;28;20492;-77
2022/06/06 09:44:35;;;;;;;7.25;3.97;;;;;;;16.53;98.34;100889.34;5030502;28;20060;-77
2022/06/06 09:47:32;;;;;;;7.55;4.25;;;;;;;16.29;100.00;100894.38;5032848;28;20037;-77
2022/06/06 09:50:13;;;;;;;7.97;3.85;;;;;;;15.99;100.00;100902.94;5046700;28;20061;-78
2022/06/06 09:53:13;;;;;;;6.93;3.88;;;;;;;15.74;100.00;100891.84;5023225;28;20543;-78
2022/06/06 09:59:22;;;;;;;8.77;4.35;;;;;;;15.50;100.00;100905.97;5026391;28;20531;-78
2022/06/06 10:02:39;;;;;;;8.20;4.00;;;;;;;15.57;100.00;100902.22;5024450;28;20037;-77
2022/06/06 10:05:13;;;;;;;6.65;3.90;;;;;;;15.51;100.00;100899.53;5009402;28;20084;-77
2022/06/06 10:07:58;;;;;;;4.88;2.97;;;;;;;15.35;100.00;100904.25;5026591;28;20048;-77
2022/06/06 10:10:48;;;;;;;7.25;3.75;;;;;;;15.16;100.00;100903.16;5020504;28;20029;-76
2022/06/06 10:13:26;;;;;;;4.95;2.88;;;;;;;14.94;100.00;100898.88;4993764;28;20124;-76
2022/06/06 10:16:01;;;;;;;6.90;3.53;;;;;;;14.78;100.00;100899.22;5015069;28;20099;-76
2022/06/06 10:18:30;;;;;;;4.43;3.20;;;;;;;14.69;100.00;100898.56;5012413;28;20120;-76
2022/06/06 10:21:25;;;;;;;8.40;3.90;;;;;;;14.62;100.00;100901.22;5021755;28;20120;-76
2022/06/06 10:24:16;;;;;;;8.70;4.00;;;;;;;14.58;100.00;100897.25;5028956;28;20648;-76
2022/06/06 10:27:09;;;;;;;6.75;4.05;;;;;;;14.55;100.00;100908.44;5025131;28;20040;-76
2022/06/06 10:30:12;;;;;;;7.45;3.55;;;;;;;14.48;100.00;100905.69;5028068;28;20033;-76
2022/06/06 10:33:02;;;;;;;9.10;4.55;;;;;;;14.58;100.00;100896.38;5021705;28;20423;-76
2022/06/06 10:36:21;;;;;;;7.30;3.97;;;;;;;14.69;100.00;100893.16;5021986;28;20030;-76
2022/06/06 10:38:53;;;;;;;10.05;4.10;;;;;;;14.61;100.00;100896.03;4968438;28;20029;-76
2022/06/06 10:41:33;;;;;;;6.63;3.55;;;;;;;14.63;100.00;100888.50;4988529;28;20046;-76
2022/06/06 10:44:24;;;;;;;6.53;3.90;;;;;;;14.67;100.00;100897.91;5011111;28;20042;-76
2022/06/06 10:47:03;;;;;;;6.50;3.70;;;;;;;14.64;100.00;100887.50;5008296;28;20037;-76
2022/06/06 10:49:54;;;;;;;6.03;3.35;;;;;;;14.59;100.00;100893.50;5005920;28;20099;-76
2022/06/06 10:52:26;;;;;;;7.50;3.60;;;;;;;14.59;100.00;100879.13;5008138;28;20041;-76
2022/06/06 10:55:09;;;;;;;7.22;4.13;;;;;;;14.84;100.00;100901.94;5020695;28;20187;-76
2022/06/06 10:58:02;;;;;;;6.85;3.97;;;;;;;14.91;100.00;100902.00;4985923;28;20037;-76
2022/06/06 11:00:40;;;;;;;8.20;4.40;;;;;;;15.00;100.00;100908.06;5007408;28;20033;-76
2022/06/06 11:03:37;;;;;;;9.88;4.65;;;;;;;15.18;100.00;100908.38;5009604;28;20059;-76
2022/06/06 11:06:30;;;;;;;7.95;4.68;;;;;;;15.21;100.00;100913.38;5005310;28;20038;-76
2022/06/06 11:09:09;;;;;;;9.05;5.40;;;;;;;15.02;100.00;100904.13;5056455;28;20045;-77
2022/06/06 11:11:37;;;;;;;8.15;4.53;;;;;;;14.90;100.00;100909.28;5011336;28;20025;-76
2022/06/06 11:14:04;;;;;;;13.07;5.70;;;;;;;14.81;100.00;100907.78;5029454;28;20192;-76
2022/06/06 11:16:32;;;;;;;9.80;4.80;;;;;;;14.70;100.00;100913.75;5024870;28;20041;-76
2022/06/06 11:19:10;;;;;;;9.00;5.72;;;;;;;14.62;100.00;100913.91;5009815;28;20037;-76
2022/06/06 11:21:47;;;;;;;10.07;4.75;;;;;;;14.62;100.00;100919.31;5000369;28;20040;-76
2022/06/06 11:24:36;;;;;;;6.90;3.80;;;;;;;14.69;100.00;100910.22;5011998;28;20029;-76
2022/06/06 11:27:35;;;;;;;4.50;3.35;;;;;;;15.28;100.00;100913.41;5011048;28;20037;-76
2022/06/06 11:30:07;;;;;;;6.75;5.05;;;;;;;15.80;100.00;100906.50;5009347;28;20095;-77
2022/06/06 11:32:57;;;;;;;6.85;5.05;;;;;;;15.83;100.00;100906.91;5026892;28;20039;-76
2022/06/06 11:35:44;;;;;;;5.07;3.25;;;;;;;15.85;100.00;100908.56;5025068;28;20033;-76
2022/06/06 11:38:28;;;;;;;6.95;4.13;;;;;;;15.81;100.00;100906.25;5009434;28;20128;-76
2022/06/06 11:41:27;;;;;;;5.95;3.47;;;;;;;15.70;100.00;100882.47;5020982;28;20037;-76
2022/06/06 11:44:10;;;;;;;3.25;2.35;;;;;;;15.85;100.00;100909.41;5003897;28;20056;-77
2022/06/06 11:46:54;;;;;;;3.67;2.60;;;;;;;15.73;100.00;100903.75;5009051;28;20025;-79
2022/06/06 11:49:41;;;;;;;5.97;3.30;;;;;;;15.36;100.00;100914.06;5007430;28;20037;-78
2022/06/06 11:52:40;;;;;;;6.25;4.18;;;;;;;15.51;100.00;100911.19;5006333;28;20033;-78
2022/06/06 11:55:32;;;;;;;7.10;4.82;;;;;;;16.13;100.00;100906.50;5024649;28;20045;-78
2022/06/06 11:58:06;;;;;;;36.35;18.35;;;;;;;16.57;100.00;100907.72;5023635;28;20068;-78
2022/06/06 12:01:03;;;;;;;5.43;2.40;;;;;;;16.92;100.00;100910.97;5023618;28;20047;-79
2022/06/06 12:03:51;;;;;;;3.80;2.58;;;;;;;17.06;100.00;100906.34;5032501;28;20045;-77
2022/06/06 12:06:46;;;;;;;3.08;2.20;;;;;;;17.33;100.00;100903.50;5024569;28;20545;-76
2022/06/06 12:09:22;;;;;;;3.53;2.05;;;;;;;17.21;100.00;100900.63;5024464;28;20178;-77
2022/06/06 12:12:40;;;;;;;2.70;1.90;;;;;;;17.00;100.00;100909.09;5027458;28;20029;-76
2022/06/06 12:15:27;;;;;;;2.78;1.80;;;;;;;16.70;100.00;100906.84;4965509;28;20630;-77
2022/06/06 12:18:20;;;;;;;2.30;1.98;;;;;;;16.41;100.00;100910.88;4971694;28;20129;-76
2022/06/06 12:21:16;;;;;;;6.53;3.65;;;;;;;16.30;100.00;100904.22;5017408;28;20080;-78
2022/06/06 12:24:08;;;;;;;6.15;3.53;;;;;;;16.02;100.00;100907.13;4993175;28;20096;-76
2022/06/06 12:26:38;;;;;;;;;;;;;;;15.71;100.00;100903.13;5027423;28;20041;-76
2022/06/06 12:29:34;;;;;;;8.45;4.78;;;;;;;15.51;100.00;100904.94;5023377;28;20055;-76